Time;durP1;ratioP1;P1;durP2;ratioP2;P2;SDS_P1;SDS_P2;PMS_P1;PMS_P2;Temp;Humidity;BMP_temperature;BMP_pressure;BME280_temperature;BME280_humidity;BME280_pressure;Samples;Min_cycle;Max_cycle;Signal;HPM_P1;HPM_P2
2024/01/14 00:00:58;;;;;;;47.15;18.17;;;-1.80;99.90;;;;;;4974932;28;20038;-65
2024/01/14 00:03:24;;;;;;;50.45;17.83;;;-1.90;99.90;;;;;;4957437;28;20482;-66
2024/01/14 00:05:49;;;;;;;48.78;17.58;;;-1.80;99.90;;;;;;4974762;28;20559;-66
2024/01/14 00:08:15;;;;;;;45.38;17.50;;;-1.80;99.90;;;;;;4957547;28;20422;-65
2024/01/14 00:10:40;;;;;;;42.47;16.73;;;-1.80;99.90;;;;;;4957372;28;20383;-66
2024/01/14 00:13:06;;;;;;;41.30;16.35;;;-1.60;99.90;;;;;;4974554;28;20033;-66
2024/01/14 00:15:32;;;;;;;37.03;14.23;;;-1.80;99.90;;;;;;4974209;28;20113;-66
2024/01/14 00:17:57;;;;;;;45.58;16.58;;;-1.80;99.90;;;;;;4974724;28;20085;-66
2024/01/14 00:20:23;;;;;;;43.80;16.90;;;-1.90;99.90;;;;;;4976994;28;20053;-65
2024/01/14 00:22:48;;;;;;;49.47;17.98;;;-1.80;99.90;;;;;;4960818;28;20088;-65
2024/01/14 00:25:15;;;;;;;42.90;15.98;;;-2.00;99.90;;;;;;4977929;28;20026;-65
2024/01/14 00:27:40;;;;;;;41.58;15.70;;;-1.90;99.90;;;;;;4977773;28;20382;-65
2024/01/14 00:30:06;;;;;;;49.05;16.40;;;-1.80;99.90;;;;;;4960526;28;20118;-65
2024/01/14 00:32:32;;;;;;;46.17;15.77;;;-1.80;99.90;;;;;;4977806;28;20037;-65
2024/01/14 00:34:58;;;;;;;40.92;16.75;;;-1.50;99.90;;;;;;4977443;28;20070;-66
2024/01/14 00:37:24;;;;;;;46.65;17.23;;;-1.80;99.90;;;;;;4960280;28;20042;-66
2024/01/14 00:39:51;;;;;;;45.90;17.38;;;-1.80;99.90;;;;;;4960304;28;20360;-66
2024/01/14 00:42:17;;;;;;;42.97;15.27;;;-1.80;99.90;;;;;;4960244;28;20375;-65
2024/01/14 00:44:43;;;;;;;41.38;14.80;;;;;;;;;;4977972;28;20031;-65
2024/01/14 00:47:08;;;;;;;33.40;14.68;;;-1.80;99.90;;;;;;4977693;28;20027;-65
2024/01/14 00:49:34;;;;;;;41.85;15.40;;;-1.80;99.90;;;;;;4960117;28;20387;-65
2024/01/14 00:52:00;;;;;;;40.83;15.65;;;-1.80;99.90;;;;;;4977407;28;20102;-66
2024/01/14 00:54:25;;;;;;;37.13;15.23;;;-1.80;99.90;;;;;;4977312;28;20023;-66
2024/01/14 00:56:51;;;;;;;44.50;15.25;;;-1.80;99.90;;;;;;4977294;28;20086;-65
2024/01/14 00:59:17;;;;;;;43.33;15.38;;;-1.80;99.90;;;;;;4976956;28;20038;-65
2024/01/14 01:01:42;;;;;;;36.92;14.60;;;-1.80;99.90;;;;;;4959742;28;20062;-65
2024/01/14 01:04:10;;;;;;;39.95;14.82;;;-1.80;99.90;;;;;;4959551;28;20061;-66
2024/01/14 01:06:35;;;;;;;42.30;14.02;;;-1.80;99.90;;;;;;4977476;28;20081;-65
2024/01/14 01:09:01;;;;;;;41.75;15.95;;;-1.80;99.90;;;;;;4977251;28;20471;-65
2024/01/14 01:11:26;;;;;;;42.17;14.40;;;-1.80;99.90;;;;;;4977249;28;20034;-65
2024/01/14 01:13:52;;;;;;;43.55;15.40;;;-1.80;99.90;;;;;;4960059;28;20479;-65
2024/01/14 01:16:18;;;;;;;41.28;15.90;;;-1.90;99.90;;;;;;4976852;28;20113;-65
2024/01/14 01:18:43;;;;;;;45.22;15.52;;;-1.80;99.90;;;;;;4976960;28;20480;-65
2024/01/14 01:21:09;;;;;;;42.30;16.90;;;-1.80;99.90;;;;;;4976642;28;20031;-66
2024/01/14 01:23:35;;;;;;;42.83;16.70;;;-1.10;99.90;;;;;;4959541;28;20034;-65
2024/01/14 01:26:01;;;;;;;41.13;15.63;;;-1.80;99.90;;;;;;4959779;28;20031;-65
2024/01/14 01:28:27;;;;;;;42.45;16.75;;;-1.80;99.90;;;;;;4959965;28;20657;-65
2024/01/14 01:30:52;;;;;;;37.00;15.27;;;-1.80;99.90;;;;;;4958961;28;20050;-65
2024/01/14 01:33:18;;;;;;;40.15;15.90;;;-1.80;99.90;;;;;;4976632;28;20105;-65
2024/01/14 01:35:44;;;;;;;43.90;16.90;;;-1.80;99.90;;;;;;4959167;28;20174;-65
2024/01/14 01:38:09;;;;;;;42.90;15.73;;;-1.80;99.90;;;;;;4958942;28;20086;-66
2024/01/14 01:40:35;;;;;;;41.25;16.00;;;-1.80;99.90;;;;;;4959415;28;20078;-65
2024/01/14 01:43:01;;;;;;;39.00;14.70;;;-1.80;99.90;;;;;;4976776;28;20083;-65
2024/01/14 01:45:26;;;;;;;41.00;16.17;;;-1.80;99.90;;;;;;4976819;28;20037;-66
2024/01/14 01:47:52;;;;;;;37.30;14.45;;;-1.80;99.90;;;;;;4959022;28;20033;-65
2024/01/14 01:50:18;;;;;;;36.05;15.13;;;-1.80;99.90;;;;;;4976342;28;20110;-65
2024/01/14 01:52:44;;;;;;;48.58;16.58;;;-1.70;99.90;;;;;;4976345;28;20110;-65
2024/01/14 01:55:11;;;;;;;40.58;15.70;;;-0.80;99.90;;;;;;4976163;28;20085;-66
2024/01/14 01:57:38;;;;;;;43.58;15.40;;;-1.80;99.90;;;;;;4958832;28;20034;-65
2024/01/14 02:00:08;;;;;;;44.60;16.65;;;-1.80;99.90;;;;;;4959197;28;20081;-65
2024/01/14 02:02:35;;;;;;;47.30;16.67;;;-1.80;99.90;;;;;;4975772;28;20490;-65
2024/01/14 02:05:02;;;;;;;42.58;15.65;;;-1.80;99.90;;;;;;4976301;28;20051;-65
2024/01/14 02:07:29;;;;;;;37.30;15.88;;;-1.80;99.90;;;;;;4958652;28;20050;-65
2024/01/14 02:09:55;;;;;;;35.10;14.00;;;-1.80;99.90;;;;;;4975945;28;20117;-66
2024/01/14 02:12:20;;;;;;;41.20;16.10;;;-1.80;99.90;;;;;;4975927;28;20454;-65
2024/01/14 02:14:46;;;;;;;38.13;15.13;;;-1.80;99.90;;;;;;4958454;28;20467;-65
2024/01/14 02:17:12;;;;;;;38.97;16.83;;;-1.80;99.90;;;;;;4975537;28;20035;-65
2024/01/14 02:19:37;;;;;;;36.28;14.98;;;-1.60;99.90;;;;;;4975464;28;20031;-65
2024/01/14 02:22:13;;;;;;;36.53;14.85;;;-1.80;99.90;;;;;;4958487;28;20030;-65
2024/01/14 02:24:39;;;;;;;36.10;15.57;;;-1.80;99.90;;;;;;4975814;28;20387;-65
2024/01/14 02:27:05;;;;;;;38.83;14.70;;;-1.70;99.90;;;;;;4975640;28;20018;-65
2024/01/14 02:29:31;;;;;;;37.45;14.68;;;-1.70;99.90;;;;;;4958179;28;20070;-65
2024/01/14 02:31:57;;;;;;;39.38;14.35;;;-1.80;99.90;;;;;;4975253;28;20026;-65
2024/01/14 02:34:23;;;;;;;37.10;14.50;;;-1.50;99.90;;;;;;4958671;28;20022;-65
2024/01/14 02:36:49;;;;;;;37.92;14.13;;;-1.80;99.90;;;;;;4958369;28;20027;-65
2024/01/14 02:39:17;;;;;;;36.05;14.73;;;-1.80;99.90;;;;;;4975451;28;20031;-66
2024/01/14 02:41:43;;;;;;;35.63;13.00;;;-1.80;99.90;;;;;;4974754;28;20034;-65
2024/01/14 02:44:09;;;;;;;40.15;14.77;;;-1.80;99.90;;;;;;4975324;28;20027;-65
2024/01/14 02:46:35;;;;;;;36.53;14.38;;;-1.70;99.90;;;;;;4958316;28;20459;-65
2024/01/14 02:49:01;;;;;;;33.95;14.30;;;-1.80;99.90;;;;;;4975556;28;20093;-65
2024/01/14 02:51:27;;;;;;;39.95;15.70;;;-1.80;99.90;;;;;;4958464;28;20073;-65
2024/01/14 02:53:53;;;;;;;38.85;15.35;;;-1.80;99.90;;;;;;4975238;28;20379;-65
2024/01/14 02:56:18;;;;;;;35.85;13.88;;;-1.60;99.90;;;;;;4975215;28;20046;-65
2024/01/14 02:58:44;;;;;;;33.15;14.13;;;-1.40;99.90;;;;;;4974874;28;20114;-65
2024/01/14 03:01:11;;;;;;;31.02;12.15;;;-1.90;99.90;;;;;;4975171;28;20035;-65
2024/01/14 03:03:37;;;;;;;35.33;14.50;;;-1.90;99.90;;;;;;4957412;28;20097;-65
2024/01/14 03:06:03;;;;;;;34.53;13.43;;;-1.90;99.90;;;;;;4975118;28;20038;-66
2024/01/14 03:08:29;;;;;;;28.52;11.45;;;-1.90;99.90;;;;;;4975099;28;20379;-65
2024/01/14 03:10:55;;;;;;;37.00;13.07;;;-2.00;99.90;;;;;;4975035;28;20030;-65
2024/01/14 03:13:20;;;;;;;29.92;12.75;;;-1.50;99.90;;;;;;4975463;28;20407;-65
2024/01/14 03:15:46;;;;;;;26.02;10.55;;;-1.10;99.90;;;;;;4974834;28;20479;-65
2024/01/14 03:18:12;;;;;;;36.42;12.23;;;-2.10;99.90;;;;;;4975036;28;20063;-65
2024/01/14 03:20:38;;;;;;;29.95;11.98;;;-2.00;99.90;;;;;;4974636;28;20506;-65
2024/01/14 03:23:04;;;;;;;26.45;11.52;;;-1.90;99.90;;;;;;4957606;28;20038;-65
2024/01/14 03:25:30;;;;;;;26.30;10.93;;;-1.70;99.90;;;;;;4975015;28;20043;-65
2024/01/14 03:27:56;;;;;;;28.35;10.90;;;-2.20;99.90;;;;;;4975061;28;20049;-65
2024/01/14 03:30:22;;;;;;;30.27;11.85;;;-2.00;99.90;;;;;;4975298;28;20038;-66
2024/01/14 03:32:48;;;;;;;27.10;11.50;;;-2.00;99.90;;;;;;4976879;28;20027;-68
2024/01/14 03:35:14;;;;;;;24.55;10.35;;;-1.60;99.90;;;;;;4976597;28;20038;-65
2024/01/14 03:37:39;;;;;;;28.35;9.98;;;-2.00;99.90;;;;;;4975141;28;20027;-65
2024/01/14 03:40:06;;;;;;;25.75;10.55;;;-2.00;99.90;;;;;;4957543;28;20051;-65
2024/01/14 03:42:32;;;;;;;27.85;10.63;;;-2.00;99.90;;;;;;4957499;28;20023;-65
2024/01/14 03:44:57;;;;;;;24.35;10.10;;;-2.00;99.90;;;;;;4974895;28;20090;-66
2024/01/14 03:47:23;;;;;;;21.15;8.48;;;-2.00;99.90;;;;;;4974794;28;20438;-65
2024/01/14 03:49:49;;;;;;;24.25;10.50;;;-0.90;99.90;;;;;;4974706;28;20027;-65
2024/01/14 03:52:14;;;;;;;19.52;8.55;;;-1.90;99.90;;;;;;4974892;28;20470;-65
2024/01/14 03:54:40;;;;;;;24.75;9.38;;;-1.90;99.90;;;;;;4977837;28;20046;-66
2024/01/14 03:57:06;;;;;;;22.70;9.23;;;-1.90;99.90;;;;;;4978451;28;20031;-65
2024/01/14 03:59:31;;;;;;;22.27;8.35;;;-1.50;99.90;;;;;;4978612;28;20055;-65
2024/01/14 04:01:57;;;;;;;19.75;8.02;;;-1.50;99.90;;;;;;4978317;28;20382;-66
2024/01/14 04:04:23;;;;;;;17.85;7.50;;;-1.60;99.90;;;;;;4978397;28;20043;-65
2024/01/14 04:06:48;;;;;;;16.92;6.85;;;-1.70;99.90;;;;;;4978319;28;20426;-65
2024/01/14 04:09:15;;;;;;;18.40;8.07;;;-1.70;99.90;;;;;;4977816;28;20054;-65
2024/01/14 04:11:41;;;;;;;15.07;7.45;;;-1.70;99.90;;;;;;4977859;28;20050;-65
2024/01/14 04:14:07;;;;;;;17.95;8.13;;;-1.60;99.90;;;;;;4978173;28;20026;-65
2024/01/14 04:16:37;;;;;;;16.73;7.10;;;-1.70;99.90;;;;;;4960591;28;20039;-65
2024/01/14 04:19:02;;;;;;;19.85;7.43;;;-1.60;99.90;;;;;;4978004;28;20058;-65
2024/01/14 04:21:28;;;;;;;16.10;7.00;;;-1.70;99.90;;;;;;4977916;28;20058;-65
2024/01/14 04:23:54;;;;;;;16.33;5.80;;;-1.60;99.90;;;;;;4978006;28;20027;-65
2024/01/14 04:26:23;;;;;;;16.85;6.82;;;-1.60;99.90;;;;;;4977993;28;20027;-65
2024/01/14 04:28:49;;;;;;;18.65;7.22;;;-1.60;99.90;;;;;;4977639;28;20394;-65
2024/01/14 04:31:15;;;;;;;17.70;6.65;;;-1.70;99.90;;;;;;4977748;28;20026;-65
2024/01/14 04:33:41;;;;;;;16.63;6.65;;;-1.70;99.90;;;;;;4977819;28;20106;-65
2024/01/14 04:36:07;;;;;;;15.60;5.85;;;-1.60;99.90;;;;;;4977600;28;20038;-65
2024/01/14 04:38:33;;;;;;;17.50;6.47;;;-1.60;99.90;;;;;;4977554;28;20026;-65
2024/01/14 04:40:58;;;;;;;16.42;5.85;;;-1.60;99.90;;;;;;4977610;28;20057;-65
2024/01/14 04:43:24;;;;;;;13.57;5.68;;;-1.60;99.90;;;;;;4977611;28;20023;-65
2024/01/14 04:45:50;;;;;;;13.38;5.88;;;-1.70;99.90;;;;;;4977304;28;20037;-65
2024/01/14 04:48:15;;;;;;;12.43;4.88;;;-1.60;99.90;;;;;;4977249;28;20033;-65
2024/01/14 04:50:41;;;;;;;15.75;6.45;;;-1.60;99.90;;;;;;4977464;28;20023;-65
2024/01/14 04:53:07;;;;;;;10.55;5.13;;;-1.60;99.90;;;;;;4977388;28;20102;-65
2024/01/14 04:55:33;;;;;;;16.10;6.05;;;-1.60;99.90;;;;;;4977285;28;20038;-65
2024/01/14 04:57:59;;;;;;;13.18;5.65;;;-1.60;99.90;;;;;;4959960;28;20058;-65
2024/01/14 05:00:25;;;;;;;13.95;5.63;;;-1.60;99.90;;;;;;4959940;28;20467;-65
2024/01/14 05:02:51;;;;;;;12.63;5.40;;;-1.60;99.90;;;;;;4977034;28;20031;-66
2024/01/14 05:05:17;;;;;;;10.98;5.10;;;-1.60;99.90;;;;;;4976505;28;20052;-65
2024/01/14 05:07:42;;;;;;;17.02;5.93;;;-1.30;99.90;;;;;;4977794;28;20027;-65
2024/01/14 05:10:09;;;;;;;11.90;5.10;;;-1.60;99.90;;;;;;4977585;28;20030;-65
2024/01/14 05:12:34;;;;;;;12.00;4.90;;;-1.60;99.90;;;;;;4977879;28;20057;-66
2024/01/14 05:15:00;;;;;;;11.50;5.20;;;-1.60;99.90;;;;;;4977399;28;20071;-65
2024/01/14 05:17:26;;;;;;;8.85;4.47;;;-1.50;99.90;;;;;;4959908;28;20034;-65
2024/01/14 05:20:10;;;;;;;13.70;4.82;;;-1.40;99.90;;;;;;4977260;28;20034;-65
2024/01/14 05:22:36;;;;;;;10.07;4.40;;;-1.40;99.90;;;;;;4959680;28;20027;-65
2024/01/14 05:25:01;;;;;;;11.95;4.30;;;-1.40;99.90;;;;;;4977256;28;20046;-65
2024/01/14 05:27:27;;;;;;;9.95;4.50;;;-1.40;99.90;;;;;;4977029;28;20039;-65
2024/01/14 05:29:53;;;;;;;8.18;3.95;;;-1.30;99.90;;;;;;4976952;28;20057;-65
2024/01/14 05:32:18;;;;;;;10.63;4.50;;;-1.40;99.90;;;;;;4976947;28;20053;-65
2024/01/14 05:34:45;;;;;;;9.13;3.65;;;-1.20;99.90;;;;;;4976582;28;20115;-65
2024/01/14 05:37:11;;;;;;;7.75;3.75;;;-1.20;99.90;;;;;;4976857;28;20053;-65
2024/01/14 05:39:38;;;;;;;6.80;3.55;;;-1.20;99.90;;;;;;4976556;28;20018;-65
2024/01/14 05:42:04;;;;;;;13.45;5.13;;;-1.10;99.90;;;;;;4976515;28;20506;-65
2024/01/14 05:44:31;;;;;;;7.50;4.00;;;-1.20;99.90;;;;;;4959454;28;20050;-65
2024/01/14 05:46:56;;;;;;;9.52;3.95;;;-1.00;99.90;;;;;;4959031;28;20031;-66
2024/01/14 05:49:22;;;;;;;12.80;4.63;;;-1.10;99.90;;;;;;4959299;28;20122;-65
2024/01/14 05:51:48;;;;;;;9.55;4.13;;;-1.00;99.90;;;;;;4959385;28;20375;-65
2024/01/14 05:54:14;;;;;;;9.68;3.95;;;-1.00;99.90;;;;;;4959204;28;20030;-65
2024/01/14 05:56:40;;;;;;;10.00;4.65;;;-1.10;99.90;;;;;;4975879;28;20390;-65
2024/01/14 05:59:06;;;;;;;9.13;4.35;;;-1.00;99.90;;;;;;4975997;28;20022;-65
2024/01/14 06:01:32;;;;;;;11.88;4.45;;;-1.00;99.90;;;;;;4976380;28;20026;-65
2024/01/14 06:03:57;;;;;;;8.63;3.90;;;-1.10;99.90;;;;;;4976134;28;20194;-65
2024/01/14 06:06:23;;;;;;;9.02;4.32;;;-1.10;99.90;;;;;;4958695;28;20031;-65
2024/01/14 06:08:49;;;;;;;10.75;4.55;;;-1.10;99.90;;;;;;4976511;28;20106;-65
2024/01/14 06:11:15;;;;;;;9.48;3.90;;;-1.20;99.90;;;;;;4976258;28;20127;-65
2024/01/14 06:13:44;;;;;;;9.57;3.97;;;-1.10;99.90;;;;;;4958472;28;20050;-65
2024/01/14 06:16:10;;;;;;;8.20;3.63;;;-1.20;99.90;;;;;;4975610;28;20063;-65
2024/01/14 06:18:36;;;;;;;8.93;4.45;;;-1.20;99.90;;;;;;4975510;28;20057;-65
2024/01/14 06:21:02;;;;;;;9.23;3.90;;;-1.10;99.90;;;;;;4974679;28;20463;-65
2024/01/14 06:23:29;;;;;;;7.50;3.65;;;-1.10;99.90;;;;;;4975775;28;20072;-65
2024/01/14 06:25:55;;;;;;;8.77;4.30;;;-1.10;99.90;;;;;;4958302;28;20027;-65
2024/01/14 06:28:21;;;;;;;9.02;4.00;;;-1.00;99.90;;;;;;4958285;28;20026;-65
2024/01/14 06:30:47;;;;;;;9.60;3.92;;;-0.90;99.90;;;;;;4958344;28;20029;-65
2024/01/14 06:33:13;;;;;;;8.63;4.40;;;-0.90;99.90;;;;;;4975219;28;20386;-65
2024/01/14 06:35:38;;;;;;;11.25;4.90;;;-0.80;99.90;;;;;;4975423;28;20042;-65
2024/01/14 06:38:04;;;;;;;11.90;5.13;;;-0.80;99.90;;;;;;4975704;28;20101;-66
2024/01/14 06:40:30;;;;;;;11.77;4.70;;;-0.80;99.90;;;;;;4975522;28;20038;-65
2024/01/14 06:42:56;;;;;;;11.38;5.15;;;-0.80;99.90;;;;;;4958261;28;20060;-65
2024/01/14 06:45:21;;;;;;;8.52;4.45;;;-0.90;99.90;;;;;;4975402;28;20062;-65
2024/01/14 06:47:47;;;;;;;9.00;4.57;;;-1.00;99.90;;;;;;4958328;28;20118;-65
2024/01/14 06:50:13;;;;;;;9.45;4.28;;;-0.90;99.90;;;;;;4975290;28;20026;-65
2024/01/14 06:52:39;;;;;;;9.80;4.72;;;-0.90;99.90;;;;;;4957895;28;20031;-66
2024/01/14 06:55:05;;;;;;;8.98;4.28;;;-1.10;99.90;;;;;;4975275;28;20085;-65
2024/01/14 06:57:32;;;;;;;8.20;4.10;;;-1.00;99.90;;;;;;4957897;28;20027;-65
2024/01/14 07:00:04;;;;;;;8.90;4.28;;;-0.40;99.90;;;;;;4975180;28;20467;-65
2024/01/14 07:02:30;;;;;;;7.90;4.05;;;-0.90;99.90;;;;;;4957827;28;20030;-65
2024/01/14 07:04:56;;;;;;;10.18;4.28;;;-1.00;99.90;;;;;;4975373;28;20122;-65
2024/01/14 07:07:22;;;;;;;7.82;4.00;;;-0.90;99.90;;;;;;4975183;28;20550;-65
2024/01/14 07:09:48;;;;;;;9.88;4.50;;;-0.90;99.90;;;;;;4974775;28;20029;-65
2024/01/14 07:12:14;;;;;;;9.70;4.30;;;-0.90;99.90;;;;;;4957959;28;20395;-65
2024/01/14 07:14:40;;;;;;;9.35;4.38;;;-0.90;99.90;;;;;;4957651;28;20023;-65
2024/01/14 07:17:05;;;;;;;9.45;4.22;;;-0.90;99.90;;;;;;4975127;28;20029;-65
2024/01/14 07:19:31;;;;;;;9.68;4.28;;;-0.90;99.90;;;;;;4975238;28;20110;-65
2024/01/14 07:21:56;;;;;;;10.82;4.78;;;-0.90;99.90;;;;;;4975278;28;20062;-65
2024/01/14 07:24:22;;;;;;;8.65;4.22;;;-0.90;99.90;;;;;;4974906;28;20062;-65
2024/01/14 07:26:48;;;;;;;9.80;4.85;;;-0.90;99.90;;;;;;4974705;28;20077;-65
2024/01/14 07:29:14;;;;;;;10.68;4.82;;;-0.90;99.90;;;;;;4977668;28;20030;-65
2024/01/14 07:31:40;;;;;;;11.63;4.93;;;-0.80;99.90;;;;;;4978738;28;20364;-65
2024/01/14 07:34:06;;;;;;;8.05;4.45;;;-0.90;99.90;;;;;;4978932;28;20034;-65
2024/01/14 07:36:32;;;;;;;14.63;5.57;;;-0.80;99.90;;;;;;4961415;28;20094;-65
2024/01/14 07:38:59;;;;;;;12.65;5.10;;;-0.80;99.90;;;;;;4978752;28;20026;-65
2024/01/14 07:41:25;;;;;;;8.10;4.15;;;-0.80;99.90;;;;;;4978876;28;20030;-65
2024/01/14 07:43:51;;;;;;;11.50;4.88;;;-0.80;99.90;;;;;;4978422;28;20031;-65
2024/01/14 07:46:17;;;;;;;9.07;5.00;;;-1.00;99.90;;;;;;4978461;28;20050;-65
2024/01/14 07:48:43;;;;;;;9.13;4.55;;;-0.70;99.90;;;;;;4960882;28;20058;-65
2024/01/14 07:51:09;;;;;;;10.90;4.82;;;-0.70;99.90;;;;;;4961151;28;20027;-65
2024/01/14 07:53:34;;;;;;;8.80;4.35;;;-0.70;99.90;;;;;;4978515;28;20023;-70
2024/01/14 07:56:03;;;;;;;13.63;4.93;;;-0.60;99.90;;;;;;4978508;28;20368;-66
2024/01/14 07:58:29;;;;;;;10.73;4.85;;;-0.60;99.90;;;;;;4978530;28;20037;-66
2024/01/14 08:00:55;;;;;;;10.40;4.70;;;-0.50;99.90;;;;;;4961034;28;20126;-65
2024/01/14 08:03:21;;;;;;;8.73;4.10;;;-0.50;99.90;;;;;;4978215;28;20121;-65
2024/01/14 08:05:47;;;;;;;7.45;3.58;;;-0.40;99.90;;;;;;4978579;28;20065;-65
2024/01/14 08:08:13;;;;;;;7.75;3.85;;;-0.40;99.90;;;;;;4960999;28;20086;-65
2024/01/14 08:10:38;;;;;;;8.77;4.28;;;-0.30;99.90;;;;;;4978506;28;20034;-72
2024/01/14 08:13:05;;;;;;;8.45;4.40;;;-0.10;99.90;;;;;;4979787;28;20440;-66
2024/01/14 08:15:30;;;;;;;7.57;3.65;;;0.10;99.90;;;;;;4979335;28;20062;-65
2024/01/14 08:17:56;;;;;;;7.60;3.53;;;0.40;99.90;;;;;;4978543;28;20356;-66
2024/01/14 08:20:22;;;;;;;8.93;4.30;;;0.80;99.90;;;;;;4960734;28;20459;-66
2024/01/14 08:22:48;;;;;;;7.72;3.60;;;1.20;99.90;;;;;;4978001;28;20034;-66
2024/01/14 08:25:14;;;;;;;6.22;3.42;;;1.60;99.90;;;;;;4977645;28;20062;-66
2024/01/14 08:27:40;;;;;;;6.68;2.92;;;1.90;99.90;;;;;;4960723;28;20383;-66
2024/01/14 08:30:06;;;;;;;8.38;3.38;;;2.00;99.90;;;;;;4960616;28;20026;-66
2024/01/14 08:32:32;;;;;;;6.90;3.22;;;2.20;99.90;;;;;;4977871;28;20027;-66
2024/01/14 08:34:58;;;;;;;6.78;3.70;;;2.60;99.90;;;;;;4977675;28;20042;-66
2024/01/14 08:37:24;;;;;;;7.63;3.72;;;3.00;99.90;;;;;;4979181;28;20054;-66
2024/01/14 08:39:50;;;;;;;5.13;3.05;;;3.60;99.90;;;;;;4995753;28;20364;-67
2024/01/14 08:42:18;;;;;;;5.60;3.00;;;3.90;98.20;;;;;;4997247;28;20033;-72
2024/01/14 08:44:44;;;;;;;4.90;3.13;;;4.00;97.40;;;;;;4979963;28;20169;-67
2024/01/14 08:47:10;;;;;;;5.15;3.08;;;4.40;96.60;;;;;;4997339;28;20062;-66
2024/01/14 08:49:36;;;;;;;7.15;2.72;;;4.30;95.80;;;;;;4997383;28;20029;-66
2024/01/14 08:52:02;;;;;;;6.15;3.05;;;4.60;94.90;;;;;;4980063;28;20029;-67
2024/01/14 08:54:33;;;;;;;4.60;2.50;;;4.30;95.10;;;;;;4997251;28;20513;-66
2024/01/14 08:56:59;;;;;;;7.07;3.10;;;4.50;94.70;;;;;;4996768;28;20065;-65
2024/01/14 08:59:26;;;;;;;4.88;2.78;;;4.60;94.30;;;;;;4997039;28;20042;-66
2024/01/14 09:01:52;;;;;;;4.93;2.90;;;4.70;93.40;;;;;;4996761;28;20030;-66
2024/01/14 09:04:18;;;;;;;6.10;2.95;;;4.70;94.10;;;;;;4996485;28;20062;-68
2024/01/14 09:06:44;;;;;;;6.28;3.25;;;5.10;93.10;;;;;;4996616;28;20467;-66
2024/01/14 09:09:10;;;;;;;6.55;3.58;;;5.70;92.40;;;;;;4979424;28;20097;-66
2024/01/14 09:11:36;;;;;;;5.45;3.05;;;6.10;91.40;;;;;;4996003;28;20027;-66
2024/01/14 09:14:02;;;;;;;5.68;2.97;;;6.00;90.90;;;;;;4976662;28;20383;-66
2024/01/14 09:16:27;;;;;;;5.65;3.00;;;6.00;89.90;;;;;;4976928;28;20046;-66
2024/01/14 09:18:53;;;;;;;5.75;3.00;;;6.20;90.20;;;;;;4959655;28;20053;-66
2024/01/14 09:21:19;;;;;;;5.10;3.00;;;5.90;89.70;;;;;;4976634;28;20038;-66
2024/01/14 09:23:44;;;;;;;5.68;3.00;;;5.40;89.80;;;;;;4959478;28;20037;-66
2024/01/14 09:26:10;;;;;;;4.57;2.67;;;5.30;90.60;;;;;;4976575;28;20062;-66
2024/01/14 09:28:36;;;;;;;6.40;3.22;;;5.60;90.70;;;;;;4976826;28;20104;-66
2024/01/14 09:31:05;;;;;;;4.65;2.70;;;5.90;89.50;;;;;;4959172;28;20026;-66
2024/01/14 09:33:32;;;;;;;4.28;2.83;;;6.10;89.10;;;;;;4976674;28;20027;-66
2024/01/14 09:36:06;;;;;;;5.88;3.13;;;5.80;88.40;;;;;;4976310;28;20038;-67
2024/01/14 09:38:31;;;;;;;6.53;2.90;;;6.30;88.60;;;;;;4959337;28;20034;-67
2024/01/14 09:41:23;;;;;;;5.43;3.03;;;7.10;85.40;;;;;;4959287;28;20022;-66
2024/01/14 09:43:50;;;;;;;5.93;3.35;;;6.80;84.80;;;;;;4976558;28;20058;-66
2024/01/14 09:46:17;;;;;;;6.57;3.45;;;6.70;84.90;;;;;;4959139;28;20038;-66
2024/01/14 09:48:46;;;;;;;7.90;4.00;;;6.10;84.90;;;;;;4976125;28;20022;-66
2024/01/14 09:51:13;;;;;;;5.70;3.50;;;5.90;86.80;;;;;;4975794;28;20027;-66
2024/01/14 09:53:41;;;;;;;6.32;3.38;;;5.80;87.30;;;;;;4975985;28;20027;-66
2024/01/14 09:56:10;;;;;;;5.30;3.22;;;5.70;88.00;;;;;;4958782;28;20031;-66
2024/01/14 09:58:39;;;;;;;9.18;3.67;;;6.10;86.70;;;;;;4958965;28;20113;-66
2024/01/14 10:01:08;;;;;;;8.27;3.83;;;6.20;86.20;;;;;;4976333;28;20034;-66
2024/01/14 10:03:34;;;;;;;5.82;3.70;;;5.90;86.60;;;;;;4958664;28;20089;-67
2024/01/14 10:06:01;;;;;;;6.28;3.83;;;6.00;87.30;;;;;;4976135;28;20096;-67
2024/01/14 10:08:27;;;;;;;6.00;3.42;;;6.60;87.20;;;;;;4976433;28;20459;-67
2024/01/14 10:10:53;;;;;;;5.88;3.13;;;6.40;84.10;;;;;;4958714;28;20038;-67
2024/01/14 10:13:22;;;;;;;7.38;3.63;;;5.90;85.80;;;;;;4958210;28;20131;-67
2024/01/14 10:15:48;;;;;;;6.82;3.33;;;5.60;87.20;;;;;;4975992;28;20041;-67
2024/01/14 10:18:15;;;;;;;5.20;3.33;;;5.50;87.00;;;;;;4958561;28;20036;-66
2024/01/14 10:20:40;;;;;;;6.45;4.05;;;5.30;88.80;;;;;;4975827;28;20356;-67
2024/01/14 10:23:06;;;;;;;6.78;4.10;;;5.50;88.70;;;;;;4975848;28;20023;-67
2024/01/14 10:25:32;;;;;;;6.88;4.00;;;5.70;88.50;;;;;;4975797;28;20027;-67
2024/01/14 10:28:05;;;;;;;5.10;3.45;;;6.20;86.80;;;;;;4975794;28;20035;-67
2024/01/14 10:30:31;;;;;;;5.40;3.22;;;6.30;85.30;;;;;;4976046;28;20037;-67
2024/01/14 10:32:57;;;;;;;8.10;3.17;;;6.40;84.60;;;;;;4975314;28;20114;-67
2024/01/14 10:35:24;;;;;;;4.88;2.80;;;6.10;86.40;;;;;;4975593;28;20062;-67
2024/01/14 10:37:50;;;;;;;4.63;2.80;;;5.90;86.70;;;;;;4958383;28;20027;-67
2024/01/14 10:40:19;;;;;;;7.25;3.35;;;5.90;85.80;;;;;;4958608;28;20360;-67
2024/01/14 10:42:45;;;;;;;5.03;3.10;;;5.60;87.20;;;;;;4958222;28;20059;-67
2024/01/14 10:45:11;;;;;;;5.47;2.88;;;5.40;87.50;;;;;;4975568;28;20065;-67
2024/01/14 10:47:37;;;;;;;5.28;3.05;;;5.40;87.90;;;;;;4958148;28;20026;-67
2024/01/14 10:50:03;;;;;;;7.95;3.20;;;5.70;87.70;;;;;;4975458;28;20106;-68
2024/01/14 10:52:37;;;;;;;8.20;4.00;;;5.70;86.60;;;;;;4958515;28;20483;-68
2024/01/14 10:55:42;;;;;;;7.75;3.88;;;5.90;86.80;;;;;;4975640;28;20176;-73
2024/01/14 10:58:30;;;;;;;5.40;3.25;;;5.90;86.60;;;;;;4932463;28;20053;-67
2024/01/14 11:01:02;;;;;;;6.05;3.58;;;6.00;85.70;;;;;;4975766;28;20033;-67
2024/01/14 11:03:29;;;;;;;7.47;3.55;;;6.10;85.50;;;;;;4974564;28;20047;-67
2024/01/14 11:05:55;;;;;;;10.82;4.15;;;6.50;85.40;;;;;;4975354;28;20077;-67
2024/01/14 11:08:21;;;;;;;8.30;4.20;;;7.40;83.00;;;;;;4975583;28;20109;-68
2024/01/14 11:10:51;;;;;;;10.35;4.45;;;7.60;80.00;;;;;;4958054;28;20054;-68
2024/01/14 11:13:47;;;;;;;8.15;4.45;;;8.00;79.20;;;;;;4976290;28;20544;-69
2024/01/14 11:16:45;;;;;;;7.68;4.82;;;8.90;76.70;;;;;;4957968;28;20035;-68
2024/01/14 11:19:15;;;;;;;14.83;4.40;;;9.40;73.40;;;;;;4969977;28;20111;-68
2024/01/14 11:22:20;;;;;;;9.75;4.82;;;9.70;72.60;;;;;;4975208;28;20023;-69
2024/01/14 11:24:47;;;;;;;11.70;5.28;;;9.90;71.20;;;;;;4958762;28;20034;-70
2024/01/14 11:27:13;;;;;;;17.60;5.65;;;9.60;70.70;;;;;;4958714;28;20031;-70
2024/01/14 11:29:40;;;;;;;12.38;5.25;;;10.20;69.80;;;;;;4957868;28;20031;-70
2024/01/14 11:32:13;;;;;;;14.68;5.55;;;10.10;67.40;;;;;;4978917;28;20114;-70
2024/01/14 11:34:51;;;;;;;17.33;5.75;;;9.80;68.90;;;;;;4959304;28;20023;-70
2024/01/14 11:37:29;;;;;;;11.18;5.88;;;10.40;66.60;;;;;;4975704;28;20042;-70
2024/01/14 11:40:07;;;;;;;8.20;5.50;;;10.40;66.20;;;;;;4958283;28;20030;-70
2024/01/14 11:42:38;;;;;;;30.85;6.30;;;10.90;64.60;;;;;;4957457;28;20113;-70
2024/01/14 11:45:24;;;;;;;9.18;5.38;;;11.00;63.20;;;;;;4957890;28;20126;-70
2024/01/14 11:47:55;;;;;;;14.27;6.18;;;10.60;64.00;;;;;;4957691;28;20467;-69
2024/01/14 11:50:21;;;;;;;9.20;5.72;;;9.90;64.20;;;;;;4958781;28;20378;-69
2024/01/14 11:52:52;;;;;;;12.10;5.57;;;9.80;65.00;;;;;;4975515;28;20027;-69
2024/01/14 11:55:19;;;;;;;12.07;5.90;;;9.70;66.40;;;;;;4974834;28;20045;-68
2024/01/14 11:57:45;;;;;;;10.70;6.05;;;9.30;67.10;;;;;;4975323;28;20031;-69
2024/01/14 12:00:12;;;;;;;13.38;6.13;;;9.20;66.20;;;;;;4958309;28;20030;-69
2024/01/14 12:02:38;;;;;;;11.32;6.30;;;9.60;66.00;;;;;;4974813;28;20062;-70
2024/01/14 12:05:20;;;;;;;16.08;6.50;;;9.90;64.90;;;;;;4935800;29;20142;-69
2024/01/14 12:07:47;;;;;;;12.75;6.72;;;9.70;66.00;;;;;;4935114;29;20027;-69
2024/01/14 12:10:14;;;;;;;9.68;5.82;;;10.00;64.70;;;;;;4936585;29;20028;-69
2024/01/14 12:12:40;;;;;;;10.88;5.75;;;9.70;64.20;;;;;;4935596;29;20031;-69
2024/01/14 12:15:06;;;;;;;15.55;6.07;;;9.40;65.30;;;;;;4939137;29;20123;-69
2024/01/14 12:17:32;;;;;;;10.80;5.95;;;9.00;65.70;;;;;;4939180;29;20361;-68
2024/01/14 12:19:58;;;;;;;13.50;6.30;;;8.70;66.60;;;;;;4938989;29;20055;-68
2024/01/14 12:22:25;;;;;;;11.57;5.72;;;8.80;68.70;;;;;;4940115;29;20114;-69
2024/01/14 12:24:51;;;;;;;9.30;5.43;;;9.30;65.90;;;;;;4939930;29;20032;-69
2024/01/14 12:27:16;;;;;;;11.07;6.07;;;9.80;65.40;;;;;;4940666;29;20024;-69
2024/01/14 12:29:43;;;;;;;12.25;5.55;;;10.00;64.80;;;;;;4939632;29;20040;-70
2024/01/14 12:32:09;;;;;;;10.10;5.90;;;9.60;64.40;;;;;;4941531;29;20032;-69
2024/01/14 12:34:41;;;;;;;11.98;5.25;;;8.90;65.50;;;;;;4939587;29;20028;-69
2024/01/14 12:37:07;;;;;;;11.70;6.03;;;9.10;66.50;;;;;;4939532;29;20095;-69
2024/01/14 12:39:34;;;;;;;18.60;7.15;;;9.50;65.30;;;;;;4940917;29;20032;-69